Windhoek, Namibia
Current Conditions -  °F | °C
As of 12:00 PM on Thursday 23 Oct 2014 (Local Time) from FYWW Reporting Station
Clear Clear  
Wind Chill: 31°   Ceiling: Unl
Heat Index: 31°   Visibility: 6mi
Dew Point: -14°   Wind: 9mph
Humidity: 5%   Direction: 320°NW
Pressure: 30.15"   Gusts: NA
Location:  22.56°S, 17.09°E
Report Text: FYWW 231100Z 32008KT CAVOK 31/M14 Q1021
Loading
Personal Weather Stations






























Interactive Weather Map New forecast layout! Learn more

10-Day Weather Forecast

Advertisements
Track Severe Weather on mobile